createdAt,value
2023-03-01T00:00:34.273Z,24.00
2023-03-01T00:03:04.734Z,22.00
2023-03-01T00:05:35.705Z,15.75
2023-03-01T00:08:06.369Z,21.50
2023-03-01T00:10:37.356Z,18.75
2023-03-01T00:13:07.882Z,17.00
2023-03-01T00:15:40.598Z,21.75
2023-03-01T00:18:12.063Z,18.25
2023-03-01T00:20:44.735Z,19.50
2023-03-01T00:23:15.982Z,15.50
2023-03-01T00:25:46.817Z,19.75
2023-03-01T00:28:17.861Z,18.00
2023-03-01T00:30:49.215Z,22.75
2023-03-01T00:33:19.966Z,22.00
2023-03-01T00:35:50.265Z,17.00
2023-03-01T00:38:20.758Z,20.50
2023-03-01T00:40:51.145Z,19.00
2023-03-01T00:43:22.512Z,15.50
2023-03-01T00:45:52.942Z,21.50
2023-03-01T00:48:23.716Z,21.00
2023-03-01T00:50:55.397Z,20.75
2023-03-01T00:53:26.216Z,92.50
2023-03-01T00:55:59.574Z,21.50
2023-03-01T00:58:30.115Z,17.25
2023-03-01T01:01:00.915Z,21.25
2023-03-01T01:03:31.413Z,24.50
2023-03-01T01:06:01.863Z,25.50
2023-03-01T01:08:32.700Z,33.25
2023-03-01T01:11:04.387Z,36.75
2023-03-01T01:13:35.236Z,38.50
2023-03-01T01:16:06.399Z,29.50
2023-03-01T01:18:37.375Z,31.25
2023-03-01T01:21:11.419Z,22.00
2023-03-01T01:23:43.303Z,26.75
2023-03-01T01:26:23.123Z,28.00
2023-03-01T01:28:54.832Z,27.00
2023-03-01T01:31:26.171Z,28.50
2023-03-01T01:33:57.324Z,35.25
2023-03-01T01:36:28.224Z,33.50
2023-03-01T01:38:59.435Z,21.75
2023-03-01T01:41:31.109Z,27.50
2023-03-01T01:44:22.951Z,30.25
2023-03-01T01:47:05.268Z,25.00
2023-03-01T01:49:39.224Z,29.00
2023-03-01T01:52:18.173Z,30.00
2023-03-01T01:55:10.336Z,28.75
2023-03-01T01:57:43.770Z,27.25
2023-03-01T02:00:17.973Z,32.50
2023-03-01T02:02:51.041Z,33.25
2023-03-01T02:08:22.741Z,30.00
2023-03-01T02:13:51.422Z,32.25
2023-03-01T02:16:22.516Z,32.00
2023-03-01T02:18:53.596Z,21.50
2023-03-01T02:21:35.509Z,33.00
2023-03-01T02:24:13.178Z,28.50
2023-03-01T02:26:52.991Z,30.50
2023-03-01T02:29:24.742Z,34.25
2023-03-01T02:31:58.656Z,28.25
2023-03-01T02:34:31.125Z,36.00
2023-03-01T02:37:04.561Z,33.75
2023-03-01T02:39:42.035Z,45.00
2023-03-01T02:42:18.231Z,32.00
2023-03-01T02:44:50.088Z,25.25
2023-03-01T02:47:23.851Z,34.00
2023-03-01T02:49:57.656Z,31.75
2023-03-01T02:52:33.662Z,36.50
2023-03-01T02:55:15.793Z,19.50
2023-03-01T02:57:49.479Z,32.50
2023-03-01T03:00:31.776Z,40.00
2023-03-01T03:03:02.747Z,32.25
2023-03-01T03:05:36.312Z,25.00
2023-03-01T03:08:07.674Z,27.50
2023-03-01T03:10:41.201Z,24.50
2023-03-01T03:13:15.126Z,23.50
2023-03-01T03:15:46.213Z,23.50
2023-03-01T03:18:18.283Z,26.00
2023-03-01T03:20:49.912Z,27.25
2023-03-01T03:23:21.332Z,29.00
2023-03-01T03:25:52.973Z,26.50
2023-03-01T03:28:23.391Z,28.25
2023-03-01T03:30:53.814Z,18.00
2023-03-01T03:33:24.199Z,19.50
2023-03-01T03:35:54.720Z,23.25
2023-03-01T03:38:25.170Z,24.25
2023-03-01T03:41:04.704Z,18.75
2023-03-01T03:43:38.609Z,18.50
2023-03-01T03:46:10.198Z,26.25
2023-03-01T03:48:44.076Z,24.50
2023-03-01T03:51:17.163Z,20.25
2023-03-01T03:53:47.845Z,22.25
2023-03-01T03:56:18.228Z,26.00
2023-03-01T03:58:48.822Z,20.25
2023-03-01T04:01:19.437Z,24.00
2023-03-01T04:03:50.590Z,18.75
2023-03-01T04:06:21.014Z,23.00
2023-03-01T04:08:51.762Z,22.25
2023-03-01T04:11:22.483Z,28.50
2023-03-01T04:13:54.462Z,24.75
2023-03-01T04:16:25.533Z,21.50
2023-03-01T04:18:55.823Z,23.50
2023-03-01T04:21:26.144Z,23.50
2023-03-01T04:23:56.654Z,24.50
2023-03-01T04:26:27.602Z,29.00
2023-03-01T04:28:58.382Z,26.50
2023-03-01T04:31:29.306Z,16.75
2023-03-01T04:34:00.157Z,19.00
2023-03-01T04:36:31.872Z,21.50
2023-03-01T04:39:02.848Z,22.00
2023-03-01T04:41:34.913Z,28.75
2023-03-01T04:44:06.578Z,17.00
2023-03-01T04:46:40.979Z,24.00
2023-03-01T04:49:12.387Z,21.75
2023-03-01T04:51:43.166Z,24.25
2023-03-01T04:54:14.118Z,26.50
2023-03-01T04:56:45.206Z,22.25
2023-03-01T04:59:15.565Z,29.50
2023-03-01T05:01:46.307Z,24.00
2023-03-01T05:04:17.251Z,26.75
2023-03-01T05:06:47.522Z,28.00
2023-03-01T05:09:18.170Z,24.00
2023-03-01T05:11:48.589Z,23.25
2023-03-01T05:14:19.360Z,28.50
2023-03-01T05:16:49.601Z,34.25
2023-03-01T05:19:19.895Z,36.25
2023-03-01T05:21:50.953Z,29.50
2023-03-01T05:24:21.281Z,23.50
2023-03-01T05:26:51.834Z,27.00
2023-03-01T05:29:24.409Z,32.75
2023-03-01T05:34:52.670Z,23.25
2023-03-01T05:37:23.131Z,28.00
2023-03-01T05:39:53.491Z,23.25
2023-03-01T05:42:23.986Z,21.00
2023-03-01T05:44:54.867Z,36.25
2023-03-01T05:47:25.181Z,25.50
2023-03-01T05:49:55.610Z,26.00
2023-03-01T05:52:52.718Z,32.00
2023-03-01T05:55:27.080Z,39.75
2023-03-01T05:58:57.534Z,30.50
2023-03-01T06:01:01.830Z,28.50
2023-03-01T06:03:54.417Z,38.50
2023-03-01T06:06:29.103Z,32.00
2023-03-01T06:09:00.883Z,31.50
2023-03-01T06:11:36.236Z,27.00
2023-03-01T06:19:38.914Z,22.50
2023-03-01T06:22:12.700Z,16.00
2023-03-01T06:24:45.934Z,19.50
2023-03-01T06:27:22.232Z,22.00
2023-03-01T06:29:56.324Z,22.00
2023-03-01T06:32:33.781Z,19.75
2023-03-01T06:35:03.261Z,18.50
2023-03-01T06:37:34.277Z,62.25
2023-03-01T06:40:06.906Z,25.25
2023-03-01T06:42:40.301Z,23.50
2023-03-01T06:45:11.592Z,22.25
2023-03-01T06:47:44.633Z,20.50
2023-03-01T06:50:21.889Z,20.75
2023-03-01T06:52:55.506Z,87.20
2023-03-01T06:55:27.406Z,41.75
2023-03-01T06:57:59.107Z,16.75
2023-03-01T07:00:30.049Z,21.75
2023-03-01T07:03:20.448Z,23.00
2023-03-01T07:05:52.266Z,24.75
2023-03-01T07:08:23.963Z,20.50
2023-03-01T07:11:00.127Z,26.00
2023-03-01T07:13:32.641Z,20.50
2023-03-01T07:16:03.846Z,22.75
2023-03-01T07:18:35.035Z,17.50
2023-03-01T07:21:10.584Z,19.50
2023-03-01T07:23:47.655Z,28.50
2023-03-01T07:26:18.712Z,23.00
2023-03-01T07:28:49.114Z,26.25
2023-03-01T07:31:19.435Z,24.25
2023-03-01T07:33:50.544Z,28.50
2023-03-01T07:36:21.123Z,28.25
2023-03-01T07:38:53.046Z,23.00
2023-03-01T07:41:24.006Z,23.75
2023-03-01T07:43:54.592Z,17.75
2023-03-01T07:46:25.047Z,23.00
2023-03-01T07:48:56.124Z,19.00
2023-03-01T07:51:26.377Z,25.25
2023-03-01T07:53:56.731Z,22.75
2023-03-01T07:56:29.413Z,25.75
2023-03-01T07:59:02.836Z,22.75
2023-03-01T08:01:36.863Z,21.75
2023-03-01T08:04:09.578Z,24.00
2023-03-01T08:06:40.640Z,22.00
2023-03-01T08:09:11.592Z,23.50
2023-03-01T08:11:45.068Z,18.75
2023-03-01T08:14:16.164Z,19.25
2023-03-01T08:16:48.791Z,24.25
2023-03-01T08:19:19.988Z,22.25
2023-03-01T08:21:50.384Z,20.00
2023-03-01T08:24:21.331Z,17.00
2023-03-01T08:26:51.700Z,22.50
2023-03-01T08:29:23.025Z,22.00
2023-03-01T08:31:55.203Z,14.50
2023-03-01T08:34:25.684Z,16.50
2023-03-01T08:36:56.088Z,14.75
2023-03-01T08:39:26.411Z,15.00
2023-03-01T08:41:56.801Z,14.00
2023-03-01T08:44:27.220Z,16.00
2023-03-01T08:47:00.672Z,20.75
2023-03-01T08:49:30.369Z,19.00
2023-03-01T08:52:02.978Z,20.00
2023-03-01T08:54:34.017Z,15.50
2023-03-01T08:57:07.414Z,16.50
2023-03-01T08:59:38.218Z,18.25
2023-03-01T09:02:11.550Z,17.25
2023-03-01T09:04:42.499Z,17.25
2023-03-01T09:07:13.085Z,13.00
2023-03-01T09:09:43.458Z,16.00
2023-03-01T09:12:13.827Z,13.50
2023-03-01T09:14:44.876Z,18.00
2023-03-01T09:17:16.733Z,16.50
2023-03-01T09:19:47.623Z,17.25
2023-03-01T09:22:18.643Z,14.75
2023-03-01T09:24:49.494Z,16.00
2023-03-01T09:27:19.961Z,19.00
2023-03-01T09:29:50.387Z,16.25
2023-03-01T09:32:20.770Z,16.75
2023-03-01T09:34:51.471Z,15.25
2023-03-01T09:37:21.842Z,12.50
2023-03-01T09:39:52.428Z,16.25
2023-03-01T09:42:23.511Z,12.00
2023-03-01T09:45:14.981Z,12.60
2023-03-01T09:47:46.179Z,12.00
2023-03-01T09:50:19.685Z,15.00
2023-03-01T09:53:05.244Z,14.00
2023-03-01T09:55:42.529Z,7.60
2023-03-01T09:58:28.161Z,13.00
2023-03-01T10:01:01.409Z,8.00
2023-03-01T10:03:45.851Z,9.25
2023-03-01T10:06:34.974Z,7.25
2023-03-01T10:09:02.987Z,11.00
2023-03-01T10:11:42.718Z,7.50
2023-03-01T10:14:32.527Z,9.50
2023-03-01T10:17:05.900Z,12.75
2023-03-01T10:22:44.611Z,3.75
2023-03-01T10:25:25.440Z,13.25
2023-03-01T10:27:59.443Z,8.00
2023-03-01T10:30:36.831Z,10.75
2023-03-01T10:33:15.953Z,11.25
2023-03-01T10:35:46.975Z,8.25
2023-03-01T10:38:19.543Z,13.50
2023-03-01T10:40:58.518Z,12.00
2023-03-01T10:43:35.362Z,9.50
2023-03-01T10:48:54.601Z,11.75
2023-03-01T10:51:30.840Z,11.50
2023-03-01T10:54:04.756Z,9.25
2023-03-01T10:56:38.135Z,11.50
2023-03-01T10:59:11.623Z,10.50
2023-03-01T11:01:42.698Z,11.00
2023-03-01T11:04:20.614Z,12.00
2023-03-01T11:06:54.822Z,8.25
2023-03-01T11:09:26.501Z,8.50
2023-03-01T11:12:00.257Z,12.25
2023-03-01T11:14:33.816Z,13.25
2023-03-01T11:17:08.154Z,10.25
2023-03-01T11:19:40.556Z,10.00
2023-03-01T11:22:17.239Z,12.75
2023-03-01T11:25:09.022Z,13.25
2023-03-01T11:27:34.049Z,10.75
2023-03-01T11:30:16.291Z,9.25
2023-03-01T11:33:21.224Z,11.75
2023-03-01T11:35:59.514Z,12.25
2023-03-01T11:38:51.377Z,12.00
2023-03-01T11:41:34.283Z,11.00
2023-03-01T11:44:11.187Z,11.00
2023-03-01T11:47:03.587Z,13.50
2023-03-01T11:50:06.691Z,11.00
2023-03-01T11:52:55.471Z,13.75
2023-03-01T11:55:36.442Z,13.00
2023-03-01T11:58:26.270Z,12.00
2023-03-01T12:01:05.416Z,14.75
2023-03-01T12:03:55.849Z,10.25
2023-03-01T12:06:50.563Z,11.50
2023-03-01T12:12:35.838Z,10.75
2023-03-01T12:15:35.293Z,10.00
2023-03-01T12:18:14.051Z,10.50
2023-03-01T12:21:08.177Z,14.00
2023-03-01T12:23:58.034Z,13.75
2023-03-01T12:26:36.875Z,11.00
2023-03-01T12:29:46.228Z,8.00
2023-03-01T12:32:37.745Z,10.00
2023-03-01T12:35:13.626Z,7.00
2023-03-01T12:38:03.776Z,7.00
2023-03-01T12:41:05.979Z,6.75
2023-03-01T12:44:04.805Z,9.75
2023-03-01T12:46:53.258Z,6.75
2023-03-01T12:49:29.962Z,11.25
2023-03-01T12:52:21.442Z,10.75
2023-03-01T12:54:55.108Z,12.25
2023-03-01T12:57:31.679Z,8.25
2023-03-01T13:00:33.523Z,7.50
2023-03-01T13:03:28.784Z,10.25
2023-03-01T13:06:25.800Z,11.00
2023-03-01T13:09:04.765Z,9.50
2023-03-01T13:11:36.449Z,10.50
2023-03-01T13:14:28.138Z,9.00
2023-03-01T13:17:01.750Z,9.75
2023-03-01T13:19:32.718Z,11.25
2023-03-01T13:22:06.659Z,9.50
2023-03-01T13:24:43.829Z,9.00
2023-03-01T13:27:20.309Z,13.50
2023-03-01T13:29:56.366Z,15.00
2023-03-01T13:32:43.066Z,13.00
2023-03-01T13:37:50.125Z,14.50
2023-03-01T13:40:29.735Z,12.50
2023-03-01T13:43:06.013Z,16.25
2023-03-01T13:45:41.039Z,12.75
2023-03-01T13:48:14.931Z,18.00
2023-03-01T13:50:50.844Z,15.50
2023-03-01T13:53:30.201Z,14.50
2023-03-01T13:56:12.251Z,15.25
2023-03-01T13:58:51.437Z,16.00
2023-03-01T14:01:37.402Z,16.50
2023-03-01T14:07:23.728Z,10.00
2023-03-01T14:09:57.950Z,11.00
2023-03-01T14:12:47.115Z,11.00
2023-03-01T14:15:27.270Z,11.00
2023-03-01T14:18:04.014Z,15.25
2023-03-01T14:20:40.459Z,11.00
2023-03-01T14:23:16.894Z,13.25
2023-03-01T14:25:54.163Z,10.00
2023-03-01T14:28:35.324Z,10.50
2023-03-01T14:31:27.443Z,6.00
2023-03-01T14:33:58.882Z,12.00
2023-03-01T14:36:33.023Z,11.00
2023-03-01T14:39:05.616Z,10.50
2023-03-01T14:41:38.417Z,16.25
2023-03-01T14:44:15.547Z,13.75
2023-03-01T14:46:47.760Z,13.75
2023-03-01T14:49:24.126Z,14.50
2023-03-01T14:52:02.698Z,11.25
2023-03-01T14:54:42.946Z,20.00
2023-03-01T14:57:37.041Z,39.75
2023-03-01T15:00:09.412Z,40.00
2023-03-01T15:02:40.631Z,38.00
2023-03-01T15:05:13.441Z,50.50
2023-03-01T15:07:47.857Z,67.75
2023-03-01T15:10:24.691Z,74.50
2023-03-01T15:12:55.926Z,82.75
2023-03-01T15:15:46.616Z,90.00
2023-03-01T15:18:30.016Z,99.60
2023-03-01T15:21:29.368Z,86.50
2023-03-01T15:24:14.819Z,103.00
2023-03-01T15:27:09.712Z,126.50
2023-03-01T15:29:46.863Z,106.25
2023-03-01T15:32:29.203Z,99.75
2023-03-01T15:35:42.933Z,91.50
2023-03-01T15:38:39.003Z,86.50
2023-03-01T15:41:34.341Z,104.40
2023-03-01T15:44:35.037Z,56.50
2023-03-01T15:47:10.147Z,44.00
2023-03-01T15:49:54.904Z,48.50
2023-03-01T15:52:26.659Z,52.50
2023-03-01T15:55:03.477Z,50.25
2023-03-01T15:57:36.832Z,60.00
2023-03-01T16:00:12.400Z,62.25
2023-03-01T16:02:47.839Z,76.25
2023-03-01T16:05:25.183Z,98.80
2023-03-01T16:07:56.727Z,73.75
2023-03-01T16:10:28.856Z,81.60
2023-03-01T16:16:26.758Z,57.75
2023-03-01T16:21:54.521Z,38.00
2023-03-01T16:24:25.148Z,39.25
2023-03-01T16:26:56.678Z,31.25
2023-03-01T16:29:27.599Z,33.50
2023-03-01T16:32:00.630Z,36.50
2023-03-01T16:34:32.440Z,30.50
2023-03-01T16:37:06.386Z,34.00
2023-03-01T16:39:42.601Z,32.25
2023-03-01T16:42:13.859Z,35.00
2023-03-01T16:44:47.343Z,37.50
2023-03-01T16:47:27.702Z,38.25
2023-03-01T16:49:56.596Z,29.00
2023-03-01T16:52:28.636Z,38.50
2023-03-01T16:54:59.774Z,40.25
2023-03-01T16:57:30.381Z,38.00
2023-03-01T17:00:05.996Z,39.75
2023-03-01T17:02:59.005Z,37.75
2023-03-01T17:05:17.773Z,39.00
2023-03-01T17:07:51.915Z,40.25
2023-03-01T17:10:24.621Z,40.25
2023-03-01T17:12:56.825Z,39.25
2023-03-01T17:15:29.043Z,40.75
2023-03-01T17:18:04.292Z,32.25
2023-03-01T17:20:38.750Z,41.25
2023-03-01T17:23:12.852Z,40.75
2023-03-01T17:25:57.360Z,43.00
2023-03-01T17:28:36.240Z,38.75
2023-03-01T17:31:40.445Z,39.00
2023-03-01T17:34:15.664Z,45.25
2023-03-01T17:36:55.608Z,41.50
2023-03-01T17:39:39.725Z,36.00
2023-03-01T17:42:08.078Z,39.00
2023-03-01T17:44:43.926Z,43.00
2023-03-01T17:47:16.885Z,40.50
2023-03-01T17:49:48.936Z,38.00
2023-03-01T17:52:22.712Z,37.00
2023-03-01T17:54:53.431Z,28.00
2023-03-01T17:57:25.759Z,36.25
2023-03-01T18:00:16.950Z,34.75
2023-03-01T18:02:41.552Z,34.25
2023-03-01T18:05:42.901Z,38.00
2023-03-01T18:07:48.889Z,42.00
2023-03-01T18:10:21.113Z,37.25
2023-03-01T18:13:16.105Z,35.75
2023-03-01T18:15:50.127Z,34.25
2023-03-01T18:18:21.890Z,34.50
2023-03-01T18:21:00.705Z,39.25
2023-03-01T18:23:35.234Z,33.75
2023-03-01T18:26:18.728Z,31.00
2023-03-01T18:29:02.911Z,32.00
2023-03-01T18:31:35.706Z,37.50
2023-03-01T18:34:14.036Z,31.00
2023-03-01T18:37:00.597Z,39.25
2023-03-01T18:39:19.502Z,36.25
2023-03-01T18:41:51.459Z,37.75
2023-03-01T18:44:21.970Z,33.25
2023-03-01T18:46:52.749Z,40.33
2023-03-01T18:49:24.025Z,41.50
2023-03-01T18:51:54.404Z,34.00
2023-03-01T18:54:26.469Z,41.75
2023-03-01T18:56:56.786Z,41.75
2023-03-01T18:59:28.506Z,42.00
2023-03-01T19:02:04.812Z,42.00
2023-03-01T19:04:53.453Z,45.25
2023-03-01T19:07:30.716Z,40.75
2023-03-01T19:10:13.461Z,41.50
2023-03-01T19:12:46.775Z,40.25
2023-03-01T19:15:17.699Z,46.75
2023-03-01T19:17:53.610Z,41.25
2023-03-01T19:27:27.608Z,39.00
2023-03-01T19:46:31.786Z,40.25
2023-03-01T19:49:02.119Z,40.25
2023-03-01T19:51:55.284Z,37.25
2023-03-01T19:55:59.458Z,40.00
2023-03-01T19:58:05.705Z,41.00
2023-03-01T20:01:00.007Z,41.25
2023-03-01T20:03:35.346Z,43.50
2023-03-01T20:06:33.325Z,43.00
2023-03-01T20:09:20.756Z,46.25
2023-03-01T20:11:44.364Z,39.25
2023-03-01T20:14:19.080Z,40.25
2023-03-01T20:16:57.917Z,38.50
2023-03-01T20:19:32.408Z,40.50
2023-03-01T20:22:07.128Z,33.50
2023-03-01T20:24:38.912Z,32.25
2023-03-01T20:27:19.732Z,32.75
2023-03-01T20:30:00.857Z,32.25
2023-03-01T20:32:33.209Z,32.75
2023-03-01T20:35:09.506Z,31.75
2023-03-01T20:37:41.913Z,13.50
2023-03-01T20:40:14.429Z,32.25
2023-03-01T20:42:45.431Z,35.75
2023-03-01T20:45:18.725Z,31.75
2023-03-01T20:47:50.355Z,34.50
2023-03-01T20:50:33.174Z,37.00
2023-03-01T20:53:04.617Z,34.75
2023-03-01T20:55:41.123Z,29.25
2023-03-01T20:58:13.411Z,15.25
2023-03-01T21:00:45.953Z,34.50
2023-03-01T21:03:17.979Z,29.25
2023-03-01T21:05:50.344Z,25.00
2023-03-01T21:08:24.023Z,25.00
2023-03-01T21:10:58.915Z,31.75
2023-03-01T21:13:34.319Z,28.25
2023-03-01T21:16:10.861Z,31.50
2023-03-01T21:18:42.700Z,27.00
2023-03-01T21:21:16.024Z,19.50
2023-03-01T21:23:47.261Z,29.75
2023-03-01T21:26:23.717Z,26.75
2023-03-01T21:28:58.953Z,25.50
2023-03-01T21:31:34.280Z,26.00
2023-03-01T21:34:09.763Z,29.00
2023-03-01T21:36:44.906Z,24.75
2023-03-01T21:39:15.334Z,29.25
2023-03-01T21:41:48.236Z,21.00
2023-03-01T21:44:41.229Z,25.25
2023-03-01T21:47:04.647Z,22.25
2023-03-01T21:49:36.813Z,29.50
2023-03-01T21:52:09.825Z,26.75
2023-03-01T21:54:47.744Z,31.00
2023-03-01T21:57:23.000Z,29.00
2023-03-01T21:59:57.477Z,29.00
2023-03-01T22:02:29.198Z,27.25
2023-03-01T22:05:00.775Z,29.50
2023-03-01T22:07:32.608Z,19.50
2023-03-01T22:10:05.874Z,31.00
2023-03-01T22:12:37.824Z,32.75
2023-03-01T22:15:11.201Z,27.25
2023-03-01T22:17:41.662Z,31.75
2023-03-01T22:20:12.746Z,26.25
2023-03-01T22:22:43.289Z,31.00
2023-03-01T22:25:13.836Z,26.25
2023-03-01T22:27:44.302Z,27.75
2023-03-01T22:30:15.464Z,32.00
2023-03-01T22:32:47.474Z,24.00
2023-03-01T22:35:18.657Z,24.75
2023-03-01T22:37:48.996Z,29.75
2023-03-01T22:40:19.340Z,27.00
2023-03-01T22:42:50.436Z,23.25
2023-03-01T22:45:20.943Z,32.00
2023-03-01T22:47:51.792Z,33.25
2023-03-01T22:50:22.275Z,23.75
2023-03-01T22:52:52.802Z,29.50
2023-03-01T22:55:24.052Z,34.50
2023-03-01T22:57:55.075Z,33.75
2023-03-01T23:00:27.209Z,22.50
2023-03-01T23:02:58.438Z,37.00
2023-03-01T23:05:28.988Z,29.25
2023-03-01T23:07:59.413Z,35.00
2023-03-01T23:10:29.685Z,23.00
2023-03-01T23:13:00.117Z,32.00
2023-03-01T23:15:31.099Z,31.75
2023-03-01T23:18:01.610Z,30.25
2023-03-01T23:20:39.851Z,32.00
2023-03-01T23:23:10.304Z,27.25
2023-03-01T23:25:40.888Z,33.00
2023-03-01T23:28:11.125Z,33.25
2023-03-01T23:30:42.143Z,30.75
2023-03-01T23:33:13.053Z,27.75
2023-03-01T23:35:43.957Z,31.50
2023-03-01T23:38:14.523Z,30.50
2023-03-01T23:40:45.617Z,24.75
2023-03-01T23:43:16.280Z,29.25
2023-03-01T23:45:48.059Z,28.50
2023-03-01T23:48:18.715Z,25.25
2023-03-01T23:50:49.813Z,26.50
2023-03-01T23:53:21.206Z,28.75
2023-03-01T23:55:54.269Z,26.75
2023-03-01T23:58:24.940Z,28.25
